sensor_id;sensor_type;location;lat;lon;timestamp;pressure;altitude;pressure_sealevel;temperature;humidity
33155;BME280;19511;42.682;23.332;2023-02-12T00:00:44;96099.44;;;0.66;59.17
33155;BME280;19511;42.682;23.332;2023-02-12T00:03:10;96082.47;;;0.60;59.47
33155;BME280;19511;42.682;23.332;2023-02-12T00:05:37;95995.44;;;0.08;59.05
33155;BME280;19511;42.682;23.332;2023-02-12T00:08:02;96101.50;;;0.78;59.09
33155;BME280;19511;42.682;23.332;2023-02-12T00:10:28;96117.47;;;0.97;59.22
33155;BME280;19511;42.682;23.332;2023-02-12T00:12:53;96013.16;;;0.23;58.79
33155;BME280;19511;42.682;23.332;2023-02-12T00:15:19;96038.13;;;0.34;58.70
33155;BME280;19511;42.682;23.332;2023-02-12T00:17:45;96128.88;;;0.90;59.22
33155;BME280;19511;42.682;23.332;2023-02-12T00:20:10;96134.78;;;0.92;58.83
33155;BME280;19511;42.682;23.332;2023-02-12T00:22:37;96133.34;;;0.95;58.66
33155;BME280;19511;42.682;23.332;2023-02-12T00:25:07;96142.31;;;0.95;58.59
33155;BME280;19511;42.682;23.332;2023-02-12T00:27:33;96115.72;;;0.84;58.97
33155;BME280;19511;42.682;23.332;2023-02-12T00:29:58;96121.50;;;0.91;58.84
33155;BME280;19511;42.682;23.332;2023-02-12T00:32:24;96129.81;;;0.94;58.66
33155;BME280;19511;42.682;23.332;2023-02-12T00:34:49;96125.00;;;0.91;58.68
33155;BME280;19511;42.682;23.332;2023-02-12T00:37:15;96119.56;;;0.91;58.99
33155;BME280;19511;42.682;23.332;2023-02-12T00:39:40;96106.94;;;0.87;58.70
33155;BME280;19511;42.682;23.332;2023-02-12T00:42:06;95980.41;;;0.02;59.52
33155;BME280;19511;42.682;23.332;2023-02-12T00:44:31;95993.34;;;0.13;58.85
33155;BME280;19511;42.682;23.332;2023-02-12T00:46:57;96096.66;;;0.84;58.72
33155;BME280;19511;42.682;23.332;2023-02-12T00:49:23;96096.19;;;0.90;58.52
33155;BME280;19511;42.682;23.332;2023-02-12T00:51:48;96096.03;;;0.87;59.05
33155;BME280;19511;42.682;23.332;2023-02-12T00:54:14;96005.97;;;0.36;58.95
33155;BME280;19511;42.682;23.332;2023-02-12T00:56:40;96075.84;;;0.88;58.85
33155;BME280;19511;42.682;23.332;2023-02-12T00:59:08;96088.31;;;0.89;59.50
33155;BME280;19511;42.682;23.332;2023-02-12T01:01:34;96086.88;;;0.91;59.61
33155;BME280;19511;42.682;23.332;2023-02-12T01:03:59;96078.69;;;0.91;59.42
33155;BME280;19511;42.682;23.332;2023-02-12T01:06:25;96067.34;;;0.89;59.78
33155;BME280;19511;42.682;23.332;2023-02-12T01:08:54;96064.31;;;0.82;59.62
33155;BME280;19511;42.682;23.332;2023-02-12T01:11:20;96069.13;;;0.85;59.75
33155;BME280;19511;42.682;23.332;2023-02-12T01:13:49;96028.84;;;0.52;59.83
33155;BME280;19511;42.682;23.332;2023-02-12T01:16:18;96071.81;;;0.94;59.36
33155;BME280;19511;42.682;23.332;2023-02-12T01:18:48;96085.88;;;1.05;58.88
33155;BME280;19511;42.682;23.332;2023-02-12T01:21:17;96092.94;;;1.06;58.90
33155;BME280;19511;42.682;23.332;2023-02-12T01:23:43;96093.56;;;1.03;59.08
33155;BME280;19511;42.682;23.332;2023-02-12T01:26:14;96077.88;;;1.00;59.18
33155;BME280;19511;42.682;23.332;2023-02-12T01:28:47;95976.81;;;0.36;59.17
33155;BME280;19511;42.682;23.332;2023-02-12T01:31:15;96062.69;;;0.81;60.20
33155;BME280;19511;42.682;23.332;2023-02-12T01:33:42;96082.69;;;0.94;60.39
33155;BME280;19511;42.682;23.332;2023-02-12T01:36:08;96096.13;;;1.08;60.23
33155;BME280;19511;42.682;23.332;2023-02-12T01:38:34;95971.06;;;0.29;60.68
33155;BME280;19511;42.682;23.332;2023-02-12T01:41:27;96086.06;;;1.00;61.04
33155;BME280;19511;42.682;23.332;2023-02-12T01:44:17;96077.41;;;0.97;61.81
33155;BME280;19511;42.682;23.332;2023-02-12T01:46:48;96079.19;;;0.93;62.46
33155;BME280;19511;42.682;23.332;2023-02-12T01:49:23;96070.25;;;0.84;62.34
33155;BME280;19511;42.682;23.332;2023-02-12T01:51:54;96052.78;;;0.85;63.36
33155;BME280;19511;42.682;23.332;2023-02-12T01:54:23;96052.72;;;0.94;62.88
33155;BME280;19511;42.682;23.332;2023-02-12T01:56:50;95942.94;;;0.16;63.44
33155;BME280;19511;42.682;23.332;2023-02-12T01:59:16;95970.91;;;0.34;63.24
33155;BME280;19511;42.682;23.332;2023-02-12T02:01:42;96059.78;;;0.95;63.59
33155;BME280;19511;42.682;23.332;2023-02-12T02:04:12;96075.50;;;0.98;63.56
33155;BME280;19511;42.682;23.332;2023-02-12T02:06:47;96075.50;;;0.89;63.76
33155;BME280;19511;42.682;23.332;2023-02-12T02:09:16;96074.69;;;0.89;64.32
33155;BME280;19511;42.682;23.332;2023-02-12T02:11:43;96061.75;;;0.86;65.20
33155;BME280;19511;42.682;23.332;2023-02-12T02:14:27;95946.00;;;-0.03;66.33
33155;BME280;19511;42.682;23.332;2023-02-12T02:22:55;96069.50;;;0.66;68.50
33155;BME280;19511;42.682;23.332;2023-02-12T02:31:00;95950.16;;;-0.23;73.00
33155;BME280;19511;42.682;23.332;2023-02-12T02:39:46;96055.09;;;0.30;76.53
33155;BME280;19511;42.682;23.332;2023-02-12T02:42:33;96066.47;;;0.32;77.97
33155;BME280;19511;42.682;23.332;2023-02-12T02:45:13;96056.06;;;0.26;80.26
33155;BME280;19511;42.682;23.332;2023-02-12T02:48:32;96058.31;;;0.15;82.37
33155;BME280;19511;42.682;23.332;2023-02-12T02:50:43;96063.75;;;0.15;82.80
33155;BME280;19511;42.682;23.332;2023-02-12T02:53:17;96061.03;;;0.15;83.26
33155;BME280;19511;42.682;23.332;2023-02-12T02:55:50;95954.78;;;-0.59;84.47
33155;BME280;19511;42.682;23.332;2023-02-12T02:58:21;96066.31;;;0.20;84.22
33155;BME280;19511;42.682;23.332;2023-02-12T03:03:32;96059.41;;;0.14;82.47
33155;BME280;19511;42.682;23.332;2023-02-12T03:06:03;96076.72;;;0.27;82.40
33155;BME280;19511;42.682;23.332;2023-02-12T03:08:35;96071.59;;;0.34;82.29
33155;BME280;19511;42.682;23.332;2023-02-12T03:11:10;96075.13;;;0.35;82.74
33155;BME280;19511;42.682;23.332;2023-02-12T03:13:54;96086.97;;;0.39;82.65
33155;BME280;19511;42.682;23.332;2023-02-12T03:16:40;96084.72;;;0.41;82.33
33155;BME280;19511;42.682;23.332;2023-02-12T03:19:11;95942.50;;;-0.47;83.33
33155;BME280;19511;42.682;23.332;2023-02-12T03:21:55;96080.06;;;0.32;82.83
33155;BME280;19511;42.682;23.332;2023-02-12T03:24:40;95945.03;;;-0.51;83.77
33155;BME280;19511;42.682;23.332;2023-02-12T03:27:12;96070.16;;;0.28;84.86
33155;BME280;19511;42.682;23.332;2023-02-12T03:29:40;96065.03;;;0.18;87.51
33155;BME280;19511;42.682;23.332;2023-02-12T03:35:08;95957.19;;;-0.57;89.89
33155;BME280;19511;42.682;23.332;2023-02-12T03:40:18;96062.47;;;0.04;91.45
33155;BME280;19511;42.682;23.332;2023-02-12T03:42:58;96047.28;;;0.03;90.24
33155;BME280;19511;42.682;23.332;2023-02-12T03:48:27;96061.19;;;0.19;91.16
33155;BME280;19511;42.682;23.332;2023-02-12T03:51:23;96064.56;;;0.07;94.22
33155;BME280;19511;42.682;23.332;2023-02-12T03:53:51;96065.53;;;0.11;95.27
33155;BME280;19511;42.682;23.332;2023-02-12T03:56:21;95967.28;;;-0.49;94.06
33155;BME280;19511;42.682;23.332;2023-02-12T03:58:49;96071.75;;;0.11;94.14
33155;BME280;19511;42.682;23.332;2023-02-12T04:01:14;96050.00;;;-0.06;95.17
33155;BME280;19511;42.682;23.332;2023-02-12T04:03:40;96061.34;;;0.13;92.92
33155;BME280;19511;42.682;23.332;2023-02-12T04:06:21;96053.97;;;0.14;91.50
33155;BME280;19511;42.682;23.332;2023-02-12T04:08:47;96046.63;;;0.23;88.60
33155;BME280;19511;42.682;23.332;2023-02-12T04:14:23;96057.53;;;0.23;89.24
33155;BME280;19511;42.682;23.332;2023-02-12T04:17:03;96065.53;;;0.28;89.69
33155;BME280;19511;42.682;23.332;2023-02-12T04:27:54;96078.81;;;0.30;93.05
33155;BME280;19511;42.682;23.332;2023-02-12T04:32:50;96077.50;;;0.45;89.56
33155;BME280;19511;42.682;23.332;2023-02-12T04:35:31;96086.00;;;0.52;88.59
33155;BME280;19511;42.682;23.332;2023-02-12T04:40:27;96070.97;;;0.46;89.00
33155;BME280;19511;42.682;23.332;2023-02-12T04:42:53;96075.25;;;0.47;89.38
33155;BME280;19511;42.682;23.332;2023-02-12T04:45:28;96082.63;;;0.64;88.16
33155;BME280;19511;42.682;23.332;2023-02-12T04:47:54;96095.56;;;0.58;89.28
33155;BME280;19511;42.682;23.332;2023-02-12T04:50:20;96086.13;;;0.47;91.20
33155;BME280;19511;42.682;23.332;2023-02-12T04:52:46;96097.03;;;0.47;93.35
33155;BME280;19511;42.682;23.332;2023-02-12T04:55:11;96066.31;;;0.38;92.67
33155;BME280;19511;42.682;23.332;2023-02-12T04:57:39;96091.56;;;0.64;90.32
33155;BME280;19511;42.682;23.332;2023-02-12T05:00:11;96100.06;;;0.72;89.85
33155;BME280;19511;42.682;23.332;2023-02-12T05:02:37;96028.38;;;0.32;88.69
33155;BME280;19511;42.682;23.332;2023-02-12T05:05:06;95991.56;;;0.09;88.64
33155;BME280;19511;42.682;23.332;2023-02-12T05:07:31;96097.66;;;0.70;89.30
33155;BME280;19511;42.682;23.332;2023-02-12T05:09:57;96072.84;;;0.54;90.11
33155;BME280;19511;42.682;23.332;2023-02-12T05:12:22;96105.81;;;0.79;90.12
33155;BME280;19511;42.682;23.332;2023-02-12T05:14:48;96089.50;;;0.70;89.83
33155;BME280;19511;42.682;23.332;2023-02-12T05:17:13;96090.94;;;0.68;90.20
33155;BME280;19511;42.682;23.332;2023-02-12T05:19:39;96101.00;;;0.76;90.59
33155;BME280;19511;42.682;23.332;2023-02-12T05:22:04;96078.78;;;0.65;90.60
33155;BME280;19511;42.682;23.332;2023-02-12T05:24:38;96107.09;;;0.81;91.91
33155;BME280;19511;42.682;23.332;2023-02-12T05:27:07;96110.13;;;0.80;91.01
33155;BME280;19511;42.682;23.332;2023-02-12T05:29:34;96104.22;;;0.78;91.04
33155;BME280;19511;42.682;23.332;2023-02-12T05:31:59;96117.16;;;0.90;89.71
33155;BME280;19511;42.682;23.332;2023-02-12T05:34:25;96121.16;;;0.92;90.51
33155;BME280;19511;42.682;23.332;2023-02-12T05:36:50;96124.84;;;0.96;89.46
33155;BME280;19511;42.682;23.332;2023-02-12T05:39:16;96028.19;;;0.38;90.30
33155;BME280;19511;42.682;23.332;2023-02-12T05:41:41;96113.16;;;0.87;92.28
33155;BME280;19511;42.682;23.332;2023-02-12T05:44:07;96129.31;;;1.01;93.92
33155;BME280;19511;42.682;23.332;2023-02-12T05:46:35;96140.38;;;1.05;94.94
33155;BME280;19511;42.682;23.332;2023-02-12T05:49:01;96134.47;;;0.94;98.77
33155;BME280;19511;42.682;23.332;2023-02-12T05:51:27;96139.59;;;0.95;100.00
33155;BME280;19511;42.682;23.332;2023-02-12T05:54:02;96132.38;;;1.00;100.00
33155;BME280;19511;42.682;23.332;2023-02-12T05:56:41;96083.28;;;0.43;100.00
33155;BME280;19511;42.682;23.332;2023-02-12T05:59:18;96148.59;;;0.70;100.00
33155;BME280;19511;42.682;23.332;2023-02-12T06:01:45;96152.63;;;0.55;100.00
33155;BME280;19511;42.682;23.332;2023-02-12T06:04:23;96142.03;;;0.44;100.00
33155;BME280;19511;42.682;23.332;2023-02-12T06:06:50;96152.28;;;0.47;100.00
33155;BME280;19511;42.682;23.332;2023-02-12T06:09:16;96162.06;;;0.48;100.00
33155;BME280;19511;42.682;23.332;2023-02-12T06:11:46;96159.00;;;0.50;100.00
33155;BME280;19511;42.682;23.332;2023-02-12T06:14:17;96152.28;;;0.56;100.00
33155;BME280;19511;42.682;23.332;2023-02-12T06:16:46;96142.84;;;0.62;100.00
33155;BME280;19511;42.682;23.332;2023-02-12T06:19:18;96159.03;;;0.68;100.00
33155;BME280;19511;42.682;23.332;2023-02-12T06:21:46;96140.28;;;0.57;100.00
33155;BME280;19511;42.682;23.332;2023-02-12T06:24:13;96036.41;;;-0.15;100.00
33155;BME280;19511;42.682;23.332;2023-02-12T06:26:49;96034.47;;;-0.06;100.00
33155;BME280;19511;42.682;23.332;2023-02-12T06:29:15;96157.41;;;0.67;100.00
33155;BME280;19511;42.682;23.332;2023-02-12T06:31:41;96143.47;;;0.51;100.00
33155;BME280;19511;42.682;23.332;2023-02-12T06:34:13;96080.72;;;0.12;100.00
33155;BME280;19511;42.682;23.332;2023-02-12T06:36:44;96160.91;;;0.67;100.00
33155;BME280;19511;42.682;23.332;2023-02-12T06:39:15;96161.25;;;0.74;100.00
33155;BME280;19511;42.682;23.332;2023-02-12T06:41:48;96166.06;;;0.69;100.00
33155;BME280;19511;42.682;23.332;2023-02-12T06:44:14;96157.91;;;0.51;100.00
33155;BME280;19511;42.682;23.332;2023-02-12T06:46:40;96176.16;;;0.59;100.00
33155;BME280;19511;42.682;23.332;2023-02-12T06:49:06;96169.41;;;0.65;100.00
33155;BME280;19511;42.682;23.332;2023-02-12T06:51:32;96172.47;;;0.64;100.00
33155;BME280;19511;42.682;23.332;2023-02-12T06:54:01;96172.31;;;0.69;100.00
33155;BME280;19511;42.682;23.332;2023-02-12T06:56:27;96165.75;;;0.61;100.00
33155;BME280;19511;42.682;23.332;2023-02-12T06:58:54;96167.66;;;0.70;100.00
33155;BME280;19511;42.682;23.332;2023-02-12T07:01:25;96171.53;;;0.69;100.00
33155;BME280;19511;42.682;23.332;2023-02-12T07:04:01;96172.31;;;0.78;100.00
33155;BME280;19511;42.682;23.332;2023-02-12T07:06:32;96180.81;;;0.85;100.00
33155;BME280;19511;42.682;23.332;2023-02-12T07:08:59;96155.00;;;0.74;100.00
33155;BME280;19511;42.682;23.332;2023-02-12T07:11:30;96143.78;;;0.67;100.00
33155;BME280;19511;42.682;23.332;2023-02-12T07:13:57;96167.47;;;0.84;100.00
33155;BME280;19511;42.682;23.332;2023-02-12T07:16:23;96178.38;;;0.84;100.00
33155;BME280;19511;42.682;23.332;2023-02-12T07:18:49;96133.72;;;0.41;100.00
33155;BME280;19511;42.682;23.332;2023-02-12T07:21:15;96184.16;;;0.73;100.00
33155;BME280;19511;42.682;23.332;2023-02-12T07:23:49;96180.16;;;0.71;100.00
33155;BME280;19511;42.682;23.332;2023-02-12T07:26:19;96181.75;;;0.72;100.00
33155;BME280;19511;42.682;23.332;2023-02-12T07:28:45;96129.72;;;0.29;100.00
33155;BME280;19511;42.682;23.332;2023-02-12T07:31:18;96184.81;;;0.70;100.00
33155;BME280;19511;42.682;23.332;2023-02-12T07:33:44;96180.47;;;0.69;100.00
33155;BME280;19511;42.682;23.332;2023-02-12T07:36:12;96099.44;;;0.05;100.00
33155;BME280;19511;42.682;23.332;2023-02-12T07:38:38;96184.97;;;0.74;100.00
33155;BME280;19511;42.682;23.332;2023-02-12T07:41:13;96199.06;;;0.76;100.00
33155;BME280;19511;42.682;23.332;2023-02-12T07:43:43;96189.75;;;0.68;100.00
33155;BME280;19511;42.682;23.332;2023-02-12T07:46:15;96206.25;;;0.63;100.00
33155;BME280;19511;42.682;23.332;2023-02-12T07:48:42;96202.91;;;0.57;100.00
33155;BME280;19511;42.682;23.332;2023-02-12T07:51:14;96194.25;;;0.55;100.00
33155;BME280;19511;42.682;23.332;2023-02-12T07:53:41;96209.63;;;0.51;100.00
33155;BME280;19511;42.682;23.332;2023-02-12T07:56:09;96206.06;;;0.42;100.00
33155;BME280;19511;42.682;23.332;2023-02-12T07:58:39;96198.56;;;0.39;100.00
33155;BME280;19511;42.682;23.332;2023-02-12T08:01:23;96184.44;;;0.28;100.00
33155;BME280;19511;42.682;23.332;2023-02-12T08:03:59;96179.16;;;0.31;100.00
33155;BME280;19511;42.682;23.332;2023-02-12T08:06:32;96185.44;;;0.32;100.00
33155;BME280;19511;42.682;23.332;2023-02-12T08:09:04;96210.88;;;0.36;100.00
33155;BME280;19511;42.682;23.332;2023-02-12T08:11:34;96201.94;;;0.36;100.00
33155;BME280;19511;42.682;23.332;2023-02-12T08:14:03;96199.06;;;0.41;100.00
33155;BME280;19511;42.682;23.332;2023-02-12T08:16:39;96148.44;;;0.22;100.00
33155;BME280;19511;42.682;23.332;2023-02-12T08:19:13;96204.97;;;0.52;100.00
33155;BME280;19511;42.682;23.332;2023-02-12T08:21:50;96196.16;;;0.63;100.00
33155;BME280;19511;42.682;23.332;2023-02-12T08:24:17;96113.69;;;0.10;100.00
33155;BME280;19511;42.682;23.332;2023-02-12T08:26:45;96202.09;;;0.74;100.00
33155;BME280;19511;42.682;23.332;2023-02-12T08:29:24;96214.28;;;0.77;100.00
33155;BME280;19511;42.682;23.332;2023-02-12T08:32:27;96199.88;;;0.68;100.00
33155;BME280;19511;42.682;23.332;2023-02-12T08:34:56;96202.44;;;0.73;100.00
33155;BME280;19511;42.682;23.332;2023-02-12T08:37:25;96213.94;;;0.87;100.00
33155;BME280;19511;42.682;23.332;2023-02-12T08:40:10;96229.19;;;0.88;100.00
33155;BME280;19511;42.682;23.332;2023-02-12T08:43:13;96234.63;;;0.88;100.00
33155;BME280;19511;42.682;23.332;2023-02-12T08:45:38;96118.81;;;0.21;100.00
33155;BME280;19511;42.682;23.332;2023-02-12T08:48:11;96125.72;;;0.18;100.00
33155;BME280;19511;42.682;23.332;2023-02-12T08:50:40;96230.78;;;0.89;100.00
33155;BME280;19511;42.682;23.332;2023-02-12T08:53:06;96244.88;;;0.91;100.00
33155;BME280;19511;42.682;23.332;2023-02-12T08:55:32;96237.34;;;0.88;100.00
33155;BME280;19511;42.682;23.332;2023-02-12T08:57:57;96229.16;;;0.79;100.00
33155;BME280;19511;42.682;23.332;2023-02-12T09:00:22;96145.38;;;0.24;100.00
33155;BME280;19511;42.682;23.332;2023-02-12T09:02:48;96129.56;;;0.35;100.00
33155;BME280;19511;42.682;23.332;2023-02-12T09:05:13;96225.34;;;0.89;100.00
33155;BME280;19511;42.682;23.332;2023-02-12T09:07:39;96251.13;;;1.09;100.00
33155;BME280;19511;42.682;23.332;2023-02-12T09:10:05;96179.81;;;0.63;100.00
33155;BME280;19511;42.682;23.332;2023-02-12T09:12:32;96257.22;;;1.15;100.00
33155;BME280;19511;42.682;23.332;2023-02-12T09:14:57;96247.28;;;1.02;100.00
33155;BME280;19511;42.682;23.332;2023-02-12T09:17:25;96166.06;;;0.51;100.00
33155;BME280;19511;42.682;23.332;2023-02-12T09:19:57;96251.59;;;1.03;100.00
33155;BME280;19511;42.682;23.332;2023-02-12T09:22:25;96196.16;;;0.81;100.00
33155;BME280;19511;42.682;23.332;2023-02-12T09:24:58;96232.84;;;1.10;100.00
33155;BME280;19511;42.682;23.332;2023-02-12T09:27:29;96255.41;;;1.37;100.00
33155;BME280;19511;42.682;23.332;2023-02-12T09:29:55;96264.41;;;1.37;100.00
33155;BME280;19511;42.682;23.332;2023-02-12T09:32:29;96245.63;;;1.44;100.00
33155;BME280;19511;42.682;23.332;2023-02-12T09:34:59;96263.09;;;1.52;100.00
33155;BME280;19511;42.682;23.332;2023-02-12T09:37:46;96240.19;;;1.36;100.00
33155;BME280;19511;42.682;23.332;2023-02-12T09:44:16;96275.59;;;1.44;100.00
33155;BME280;19511;42.682;23.332;2023-02-12T09:52:43;96271.44;;;1.29;100.00
33155;BME280;19511;42.682;23.332;2023-02-12T09:55:17;96216.03;;;0.90;100.00
33155;BME280;19511;42.682;23.332;2023-02-12T09:57:47;96282.50;;;1.42;100.00
33155;BME280;19511;42.682;23.332;2023-02-12T10:02:42;96273.03;;;1.57;100.00
33155;BME280;19511;42.682;23.332;2023-02-12T10:05:17;96272.09;;;1.53;100.00
33155;BME280;19511;42.682;23.332;2023-02-12T10:19:56;96284.38;;;1.76;100.00
33155;BME280;19511;42.682;23.332;2023-02-12T10:25:30;96273.72;;;1.92;100.00
33155;BME280;19511;42.682;23.332;2023-02-12T10:28:09;96276.47;;;1.92;100.00
33155;BME280;19511;42.682;23.332;2023-02-12T10:33:49;96283.97;;;2.04;100.00
33155;BME280;19511;42.682;23.332;2023-02-12T10:36:43;96280.56;;;2.16;100.00
33155;BME280;19511;42.682;23.332;2023-02-12T10:42:05;96276.84;;;2.12;100.00
33155;BME280;19511;42.682;23.332;2023-02-12T10:44:41;96271.72;;;2.10;100.00
33155;BME280;19511;42.682;23.332;2023-02-12T10:47:20;96261.81;;;2.06;100.00
33155;BME280;19511;42.682;23.332;2023-02-12T10:49:55;96205.59;;;1.75;100.00
33155;BME280;19511;42.682;23.332;2023-02-12T10:52:46;96278.44;;;2.22;100.00
33155;BME280;19511;42.682;23.332;2023-02-12T10:55:31;96268.00;;;2.24;100.00
33155;BME280;19511;42.682;23.332;2023-02-12T10:57:58;96276.34;;;2.27;100.00
33155;BME280;19511;42.682;23.332;2023-02-12T11:03:03;96173.38;;;1.68;100.00
33155;BME280;19511;42.682;23.332;2023-02-12T11:05:31;96279.44;;;2.47;100.00
33155;BME280;19511;42.682;23.332;2023-02-12T11:07:57;96280.75;;;2.41;100.00
33155;BME280;19511;42.682;23.332;2023-02-12T11:10:37;96285.56;;;2.44;100.00
33155;BME280;19511;42.682;23.332;2023-02-12T11:13:04;96274.31;;;2.45;100.00
33155;BME280;19511;42.682;23.332;2023-02-12T11:15:54;96263.09;;;2.38;100.00
33155;BME280;19511;42.682;23.332;2023-02-12T11:18:29;96273.41;;;2.63;100.00
33155;BME280;19511;42.682;23.332;2023-02-12T11:21:11;96270.03;;;2.66;100.00
33155;BME280;19511;42.682;23.332;2023-02-12T11:23:43;96262.81;;;2.61;100.00
33155;BME280;19511;42.682;23.332;2023-02-12T11:29:08;96270.28;;;2.73;100.00
33155;BME280;19511;42.682;23.332;2023-02-12T11:32:02;96261.78;;;2.74;100.00
33155;BME280;19511;42.682;23.332;2023-02-12T11:34:28;96263.88;;;2.69;100.00
33155;BME280;19511;42.682;23.332;2023-02-12T11:36:56;96263.09;;;2.68;100.00
33155;BME280;19511;42.682;23.332;2023-02-12T11:39:32;96268.41;;;2.65;100.00
33155;BME280;19511;42.682;23.332;2023-02-12T11:44:49;96264.28;;;2.58;100.00
33155;BME280;19511;42.682;23.332;2023-02-12T11:47:26;96274.94;;;2.72;100.00
33155;BME280;19511;42.682;23.332;2023-02-12T11:50:07;96173.38;;;2.28;100.00
33155;BME280;19511;42.682;23.332;2023-02-12T11:52:35;96257.50;;;2.86;100.00
33155;BME280;19511;42.682;23.332;2023-02-12T11:55:06;96270.91;;;3.00;100.00
33155;BME280;19511;42.682;23.332;2023-02-12T11:57:43;96269.81;;;2.92;100.00
33155;BME280;19511;42.682;23.332;2023-02-12T12:03:00;96255.84;;;2.93;100.00
33155;BME280;19511;42.682;23.332;2023-02-12T12:05:37;96166.63;;;2.55;100.00
33155;BME280;19511;42.682;23.332;2023-02-12T12:08:13;96278.81;;;3.35;100.00
33155;BME280;19511;42.682;23.332;2023-02-12T12:10:46;96276.69;;;3.40;100.00
33155;BME280;19511;42.682;23.332;2023-02-12T12:13:20;96273.06;;;3.27;100.00
33155;BME280;19511;42.682;23.332;2023-02-12T12:15:49;96267.50;;;3.24;100.00
33155;BME280;19511;42.682;23.332;2023-02-12T12:18:57;96267.91;;;3.14;100.00
33155;BME280;19511;42.682;23.332;2023-02-12T12:22:10;96265.69;;;3.28;100.00
33155;BME280;19511;42.682;23.332;2023-02-12T12:24:51;96278.03;;;3.34;100.00
33155;BME280;19511;42.682;23.332;2023-02-12T12:33:36;96271.50;;;3.26;100.00
33155;BME280;19511;42.682;23.332;2023-02-12T13:12:12;96309.34;;;3.91;100.00
33155;BME280;19511;42.682;23.332;2023-02-12T13:15:18;96309.69;;;3.90;100.00
33155;BME280;19511;42.682;23.332;2023-02-12T13:18:36;96303.41;;;3.89;100.00
33155;BME280;19511;42.682;23.332;2023-02-12T13:20:59;96314.59;;;3.97;100.00
33155;BME280;19511;42.682;23.332;2023-02-12T13:23:48;96313.81;;;3.96;100.00
33155;BME280;19511;42.682;23.332;2023-02-12T13:26:53;96311.66;;;4.02;100.00
33155;BME280;19511;42.682;23.332;2023-02-12T13:29:34;96313.25;;;4.03;100.00
33155;BME280;19511;42.682;23.332;2023-02-12T13:32:05;96303.03;;;3.91;100.00
33155;BME280;19511;42.682;23.332;2023-02-12T13:34:45;96221.84;;;3.37;100.00
33155;BME280;19511;42.682;23.332;2023-02-12T13:37:18;96196.94;;;3.17;100.00
33155;BME280;19511;42.682;23.332;2023-02-12T13:39:47;96305.25;;;3.98;100.00
33155;BME280;19511;42.682;23.332;2023-02-12T13:42:43;96306.63;;;4.04;100.00
33155;BME280;19511;42.682;23.332;2023-02-12T13:48:14;96320.31;;;4.04;100.00
33155;BME280;19511;42.682;23.332;2023-02-12T13:59:02;96317.00;;;3.65;100.00
33155;BME280;19511;42.682;23.332;2023-02-12T14:01:43;96325.81;;;3.70;100.00
33155;BME280;19511;42.682;23.332;2023-02-12T14:06:54;96339.63;;;3.74;100.00
33155;BME280;19511;42.682;23.332;2023-02-12T14:12:37;96340.03;;;3.64;100.00
33155;BME280;19511;42.682;23.332;2023-02-12T14:15:40;96351.03;;;3.76;100.00
33155;BME280;19511;42.682;23.332;2023-02-12T14:18:33;96268.91;;;3.09;100.00
33155;BME280;19511;42.682;23.332;2023-02-12T14:23:49;96356.44;;;3.64;100.00
33155;BME280;19511;42.682;23.332;2023-02-12T14:26:22;96337.91;;;3.48;100.00
33155;BME280;19511;42.682;23.332;2023-02-12T14:29:00;96367.13;;;3.56;100.00
33155;BME280;19511;42.682;23.332;2023-02-12T14:31:43;96372.38;;;3.62;100.00
33155;BME280;19511;42.682;23.332;2023-02-12T14:36:46;96379.69;;;3.57;100.00
33155;BME280;19511;42.682;23.332;2023-02-12T14:50:37;96404.16;;;3.54;100.00
33155;BME280;19511;42.682;23.332;2023-02-12T14:53:25;96397.00;;;3.62;100.00
33155;BME280;19511;42.682;23.332;2023-02-12T14:56:06;96396.44;;;3.56;100.00
33155;BME280;19511;42.682;23.332;2023-02-12T14:58:40;96387.81;;;3.45;100.00
33155;BME280;19511;42.682;23.332;2023-02-12T15:01:29;96406.75;;;3.50;100.00
33155;BME280;19511;42.682;23.332;2023-02-12T15:04:29;96309.75;;;2.84;100.00
33155;BME280;19511;42.682;23.332;2023-02-12T15:07:06;96407.16;;;3.40;100.00
33155;BME280;19511;42.682;23.332;2023-02-12T15:09:36;96406.50;;;3.43;100.00
33155;BME280;19511;42.682;23.332;2023-02-12T15:12:14;96426.94;;;3.46;100.00
33155;BME280;19511;42.682;23.332;2023-02-12T15:14:50;96431.38;;;3.50;100.00
33155;BME280;19511;42.682;23.332;2023-02-12T15:17:21;96440.75;;;3.49;100.00
33155;BME280;19511;42.682;23.332;2023-02-12T15:22:39;96451.22;;;3.47;100.00
33155;BME280;19511;42.682;23.332;2023-02-12T15:25:27;96444.94;;;3.47;100.00
33155;BME280;19511;42.682;23.332;2023-02-12T15:30:35;96463.94;;;3.43;100.00
33155;BME280;19511;42.682;23.332;2023-02-12T15:33:15;96481.78;;;3.49;100.00
33155;BME280;19511;42.682;23.332;2023-02-12T15:35:46;96472.94;;;3.43;100.00
33155;BME280;19511;42.682;23.332;2023-02-12T15:38:54;96477.03;;;3.29;100.00
33155;BME280;19511;42.682;23.332;2023-02-12T15:43:54;96479.75;;;3.37;100.00
33155;BME280;19511;42.682;23.332;2023-02-12T15:46:27;96490.69;;;3.37;100.00
33155;BME280;19511;42.682;23.332;2023-02-12T15:48:52;96478.66;;;3.30;100.00
33155;BME280;19511;42.682;23.332;2023-02-12T15:51:45;96498.84;;;3.46;100.00
33155;BME280;19511;42.682;23.332;2023-02-12T15:54:17;96498.25;;;3.40;100.00
33155;BME280;19511;42.682;23.332;2023-02-12T15:56:48;96494.91;;;3.26;100.00
33155;BME280;19511;42.682;23.332;2023-02-12T15:59:27;96494.47;;;3.24;100.00
33155;BME280;19511;42.682;23.332;2023-02-12T16:02:15;96511.34;;;3.17;100.00
33155;BME280;19511;42.682;23.332;2023-02-12T16:04:48;96505.00;;;3.04;100.00
33155;BME280;19511;42.682;23.332;2023-02-12T16:07:18;96522.06;;;3.01;100.00
33155;BME280;19511;42.682;23.332;2023-02-12T16:09:50;96539.38;;;3.14;100.00
33155;BME280;19511;42.682;23.332;2023-02-12T16:12:20;96464.59;;;2.71;100.00
33155;BME280;19511;42.682;23.332;2023-02-12T16:14:56;96532.59;;;3.20;100.00